createdAt,value
2018-10-17T00:01:22.764Z,100.00
2018-10-17T00:03:53.508Z,100.00
2018-10-17T00:06:24.241Z,100.00
2018-10-17T00:08:54.982Z,100.00
2018-10-17T00:11:25.927Z,100.00
2018-10-17T00:13:56.712Z,100.00
2018-10-17T00:16:27.473Z,100.00
2018-10-17T00:18:58.449Z,100.00
2018-10-17T00:21:29.271Z,100.00
2018-10-17T00:24:00.105Z,100.00
2018-10-17T00:26:31.083Z,100.00
2018-10-17T00:29:02.348Z,100.00
2018-10-17T00:31:39.624Z,100.00
2018-10-17T00:34:10.941Z,100.00
2018-10-17T00:36:42.278Z,100.00
2018-10-17T00:39:13.073Z,100.00
2018-10-17T00:41:43.913Z,100.00
2018-10-17T00:44:14.875Z,100.00
2018-10-17T00:46:45.646Z,100.00
2018-10-17T00:49:16.409Z,100.00
2018-10-17T00:51:47.095Z,100.00
2018-10-17T00:54:17.883Z,100.00
2018-10-17T00:56:48.657Z,100.00
2018-10-17T00:59:19.386Z,100.00
2018-10-17T01:01:50.150Z,100.00
2018-10-17T01:04:23.368Z,100.00
2018-10-17T01:06:54.553Z,100.00
2018-10-17T01:09:25.210Z,100.00
2018-10-17T01:11:56.236Z,100.00
2018-10-17T01:14:27.129Z,100.00
2018-10-17T01:16:57.797Z,100.00
2018-10-17T01:19:28.781Z,100.00
2018-10-17T01:21:59.552Z,100.00
2018-10-17T01:24:30.342Z,100.00
2018-10-17T01:27:01.113Z,100.00
2018-10-17T01:29:32.801Z,100.00
2018-10-17T01:32:03.513Z,100.00
2018-10-17T01:34:34.200Z,100.00
2018-10-17T01:37:05.028Z,100.00
2018-10-17T01:39:35.824Z,100.00
2018-10-17T01:42:07.235Z,100.00
2018-10-17T01:44:37.864Z,100.00
2018-10-17T01:47:08.652Z,100.00
2018-10-17T01:49:39.322Z,100.00
2018-10-17T01:52:10.198Z,100.00
2018-10-17T01:54:40.924Z,100.00
2018-10-17T01:57:11.763Z,100.00
2018-10-17T01:59:42.410Z,100.00
2018-10-17T02:02:13.132Z,100.00
2018-10-17T02:04:44.573Z,100.00
2018-10-17T02:07:15.436Z,100.00
2018-10-17T02:09:46.915Z,100.00
2018-10-17T02:12:17.827Z,100.00
2018-10-17T02:14:49.360Z,100.00
2018-10-17T02:17:20.416Z,100.00
2018-10-17T02:19:51.248Z,100.00
2018-10-17T02:22:22.475Z,100.00
2018-10-17T02:24:54.291Z,100.00
2018-10-17T02:27:25.093Z,100.00
2018-10-17T02:29:56.358Z,100.00
2018-10-17T02:32:27.260Z,100.00
2018-10-17T02:35:03.784Z,100.00
2018-10-17T02:37:34.732Z,100.00
2018-10-17T02:40:05.802Z,100.00
2018-10-17T02:42:36.517Z,100.00
2018-10-17T02:45:08.278Z,100.00
2018-10-17T02:47:39.150Z,100.00
2018-10-17T02:50:11.944Z,100.00
2018-10-17T02:52:43.512Z,100.00
2018-10-17T02:55:14.565Z,100.00
2018-10-17T02:57:45.447Z,100.00
2018-10-17T03:00:16.243Z,100.00
2018-10-17T03:02:46.929Z,100.00
2018-10-17T03:05:18.688Z,100.00
2018-10-17T03:07:49.357Z,100.00
2018-10-17T03:10:19.963Z,100.00
2018-10-17T03:12:50.548Z,100.00
2018-10-17T03:15:21.187Z,100.00
2018-10-17T03:17:52.023Z,100.00
2018-10-17T03:20:22.899Z,100.00
2018-10-17T03:22:53.780Z,100.00
2018-10-17T03:25:24.459Z,100.00
2018-10-17T03:27:55.343Z,100.00
2018-10-17T03:30:26.424Z,100.00
2018-10-17T03:32:57.416Z,100.00
2018-10-17T03:35:28.230Z,100.00
2018-10-17T03:37:59.899Z,100.00
2018-10-17T03:40:30.673Z,100.00
2018-10-17T03:43:01.845Z,100.00
2018-10-17T03:45:32.885Z,100.00
2018-10-17T03:48:03.603Z,100.00
2018-10-17T03:50:34.319Z,100.00
2018-10-17T03:53:05.250Z,100.00
2018-10-17T03:55:36.168Z,100.00
2018-10-17T03:58:07.476Z,100.00
2018-10-17T04:00:38.141Z,100.00
2018-10-17T04:03:09.029Z,100.00
2018-10-17T04:05:40.463Z,100.00
2018-10-17T04:08:11.229Z,100.00
2018-10-17T04:10:42.255Z,100.00
2018-10-17T04:13:13.078Z,100.00
2018-10-17T04:15:50.453Z,100.00
2018-10-17T04:18:21.221Z,100.00
2018-10-17T04:20:52.240Z,100.00
2018-10-17T04:23:23.265Z,100.00
2018-10-17T04:25:54.413Z,100.00
2018-10-17T04:28:28.150Z,100.00
2018-10-17T04:30:59.377Z,100.00
2018-10-17T04:33:30.495Z,100.00
2018-10-17T04:36:02.421Z,100.00
2018-10-17T04:38:34.052Z,100.00
2018-10-17T04:41:06.319Z,100.00
2018-10-17T04:43:37.289Z,100.00
2018-10-17T04:46:08.173Z,100.00
2018-10-17T04:48:39.011Z,100.00
2018-10-17T04:51:12.549Z,100.00
2018-10-17T04:53:43.731Z,100.00
2018-10-17T04:56:14.643Z,100.00
2018-10-17T04:58:46.366Z,100.00
2018-10-17T05:01:17.343Z,100.00
2018-10-17T05:03:48.597Z,100.00
2018-10-17T05:06:20.139Z,100.00
2018-10-17T05:08:51.241Z,100.00
2018-10-17T05:11:22.392Z,100.00
2018-10-17T05:13:56.285Z,100.00
2018-10-17T05:16:27.056Z,100.00
2018-10-17T05:18:58.071Z,100.00
2018-10-17T05:21:29.794Z,100.00
2018-10-17T05:24:00.759Z,100.00
2018-10-17T05:26:31.993Z,100.00
2018-10-17T05:29:02.910Z,100.00
2018-10-17T05:31:33.796Z,100.00
2018-10-17T05:34:04.635Z,100.00
2018-10-17T05:36:35.388Z,100.00
2018-10-17T05:39:08.354Z,100.00
2018-10-17T05:41:39.321Z,100.00
2018-10-17T05:44:10.051Z,100.00
2018-10-17T05:46:40.863Z,100.00
2018-10-17T05:49:11.639Z,100.00
2018-10-17T05:51:43.101Z,100.00
2018-10-17T05:54:14.078Z,100.00
2018-10-17T05:56:45.638Z,100.00
2018-10-17T05:59:16.719Z,100.00
2018-10-17T06:01:47.856Z,100.00
2018-10-17T06:04:18.654Z,100.00
2018-10-17T06:06:50.627Z,100.00
2018-10-17T06:09:22.274Z,100.00
2018-10-17T06:11:53.647Z,100.00
2018-10-17T06:14:24.634Z,100.00
2018-10-17T06:16:55.595Z,100.00
2018-10-17T06:19:26.420Z,100.00
2018-10-17T06:21:57.187Z,100.00
2018-10-17T06:24:28.243Z,100.00
2018-10-17T06:26:59.211Z,100.00
2018-10-17T06:29:30.962Z,100.00
2018-10-17T06:32:02.172Z,100.00
2018-10-17T06:34:36.382Z,100.00
2018-10-17T06:37:11.172Z,100.00
2018-10-17T06:39:42.233Z,100.00
2018-10-17T06:42:13.555Z,100.00
2018-10-17T06:44:45.229Z,100.00
2018-10-17T06:47:16.645Z,100.00
2018-10-17T06:49:47.816Z,100.00
2018-10-17T06:52:19.016Z,100.00
2018-10-17T06:54:50.542Z,100.00
2018-10-17T06:57:21.918Z,100.00
2018-10-17T06:59:53.131Z,100.00
2018-10-17T07:02:23.995Z,100.00
2018-10-17T07:04:55.200Z,100.00
2018-10-17T07:07:25.994Z,100.00
2018-10-17T07:09:56.977Z,100.00
2018-10-17T07:12:27.721Z,100.00
2018-10-17T07:14:58.676Z,100.00
2018-10-17T07:17:29.590Z,100.00
2018-10-17T07:20:00.533Z,100.00
2018-10-17T07:22:31.449Z,100.00
2018-10-17T07:25:02.507Z,100.00
2018-10-17T07:27:33.679Z,100.00
2018-10-17T07:30:04.526Z,100.00
2018-10-17T07:32:35.684Z,100.00
2018-10-17T07:35:07.473Z,99.21
2018-10-17T07:37:38.435Z,99.42
2018-10-17T07:40:09.986Z,97.91
2018-10-17T07:42:40.973Z,97.01
2018-10-17T07:45:11.995Z,95.91
2018-10-17T07:47:43.115Z,94.96
2018-10-17T07:50:14.186Z,93.70
2018-10-17T07:52:45.229Z,93.33
2018-10-17T07:55:16.099Z,91.45
2018-10-17T07:57:47.205Z,91.17
2018-10-17T08:00:19.015Z,90.11
2018-10-17T08:02:49.782Z,88.83
2018-10-17T08:05:23.005Z,87.53
2018-10-17T08:07:54.610Z,85.12
2018-10-17T08:14:01.294Z,81.71
2018-10-17T08:16:32.137Z,80.41
2018-10-17T08:19:03.062Z,77.98
2018-10-17T08:25:11.435Z,74.38
2018-10-17T08:27:43.669Z,71.23
2018-10-17T08:30:14.963Z,64.52
2018-10-17T08:32:46.878Z,60.49
2018-10-17T08:35:17.947Z,57.39
2018-10-17T08:37:49.240Z,56.71
2018-10-17T08:40:19.867Z,55.03
2018-10-17T08:42:50.880Z,54.59
2018-10-17T08:45:28.377Z,56.07
2018-10-17T08:47:59.431Z,58.48
2018-10-17T08:50:30.375Z,60.87
2018-10-17T08:53:01.328Z,61.82
2018-10-17T08:55:32.190Z,62.64
2018-10-17T08:58:03.086Z,60.69
2018-10-17T09:00:33.886Z,61.16
2018-10-17T09:03:04.927Z,62.05
2018-10-17T09:05:35.769Z,62.86
2018-10-17T09:08:07.102Z,61.56
2018-10-17T09:10:38.721Z,61.20
2018-10-17T09:13:09.594Z,60.66
2018-10-17T09:15:41.216Z,60.53
2018-10-17T09:18:12.271Z,61.18
2018-10-17T09:20:45.099Z,60.45
2018-10-17T09:23:15.949Z,59.21
2018-10-17T09:25:47.990Z,58.39
2018-10-17T09:28:19.151Z,56.96
2018-10-17T09:30:50.882Z,56.71
2018-10-17T09:33:22.236Z,58.58
2018-10-17T09:35:57.655Z,57.44
2018-10-17T09:38:28.504Z,56.19
2018-10-17T09:40:59.399Z,55.27
2018-10-17T09:43:31.012Z,56.04
2018-10-17T09:46:02.159Z,56.81
2018-10-17T09:48:33.471Z,59.57
2018-10-17T09:51:04.235Z,60.72
2018-10-17T09:53:35.160Z,61.79
2018-10-17T09:56:06.202Z,63.01
2018-10-17T09:58:37.421Z,64.18
2018-10-17T10:02:17.864Z,64.49
2018-10-17T10:04:48.663Z,65.24
2018-10-17T10:07:19.898Z,65.69
2018-10-17T10:09:51.049Z,66.46
2018-10-17T10:12:22.303Z,67.53
2018-10-17T10:14:53.432Z,68.31
2018-10-17T10:17:24.289Z,68.11
2018-10-17T10:19:55.184Z,67.82
2018-10-17T10:22:26.040Z,68.53
2018-10-17T10:24:57.123Z,68.07
2018-10-17T10:27:28.659Z,68.18
2018-10-17T10:29:59.445Z,68.20
2018-10-17T10:32:31.593Z,68.53
2018-10-17T10:35:04.009Z,68.87
2018-10-17T10:37:36.251Z,69.38
2018-10-17T10:40:09.463Z,69.72
2018-10-17T10:42:41.726Z,69.35
2018-10-17T10:45:12.786Z,70.29
2018-10-17T10:47:45.155Z,71.32
2018-10-17T10:50:16.003Z,71.10
2018-10-17T10:52:46.801Z,70.82
2018-10-17T10:55:17.635Z,70.40
2018-10-17T10:57:48.682Z,70.96
2018-10-17T11:00:19.976Z,71.17
2018-10-17T11:02:50.950Z,72.05
2018-10-17T11:05:22.054Z,71.92
2018-10-17T11:07:53.391Z,70.50
2018-10-17T11:10:24.331Z,70.58
2018-10-17T11:12:55.323Z,70.29
2018-10-17T11:15:26.517Z,69.50
2018-10-17T11:17:57.450Z,68.80
2018-10-17T11:20:28.487Z,68.32
2018-10-17T11:22:59.533Z,67.61
2018-10-17T11:25:30.754Z,66.97
2018-10-17T11:28:02.445Z,66.07
2018-10-17T11:30:33.701Z,65.50
2018-10-17T11:33:05.250Z,65.10
2018-10-17T11:35:36.119Z,64.75
2018-10-17T11:38:07.178Z,66.77
2018-10-17T11:40:38.187Z,64.84
2018-10-17T11:43:09.174Z,67.28
2018-10-17T11:45:40.173Z,65.57
2018-10-17T11:48:13.259Z,64.61
2018-10-17T11:50:44.228Z,63.58
2018-10-17T11:53:15.213Z,63.04
2018-10-17T11:55:46.738Z,61.13
2018-10-17T11:58:18.146Z,61.03
2018-10-17T12:00:49.342Z,60.39
2018-10-17T12:03:20.623Z,60.30
2018-10-17T12:05:53.053Z,59.92
2018-10-17T12:08:24.112Z,59.31
2018-10-17T12:10:56.188Z,59.33
2018-10-17T12:13:27.502Z,58.29
2018-10-17T12:15:59.019Z,57.22
2018-10-17T12:18:30.037Z,56.09
2018-10-17T12:21:01.212Z,57.47
2018-10-17T12:23:32.391Z,56.96
2018-10-17T12:26:03.356Z,57.02
2018-10-17T12:28:34.691Z,55.54
2018-10-17T12:31:06.216Z,56.14
2018-10-17T12:33:37.627Z,56.17
2018-10-17T12:36:08.873Z,56.18
2018-10-17T12:38:39.850Z,56.41
2018-10-17T12:41:11.607Z,55.85
2018-10-17T12:43:43.471Z,56.22
2018-10-17T12:46:14.642Z,55.54
2018-10-17T12:48:46.051Z,55.80
2018-10-17T12:51:17.228Z,55.84
2018-10-17T12:53:48.544Z,55.09
2018-10-17T12:56:19.762Z,54.82
2018-10-17T12:58:52.844Z,55.24
2018-10-17T13:01:25.039Z,54.21
2018-10-17T13:03:57.966Z,53.93
2018-10-17T13:06:29.872Z,52.70
2018-10-17T13:09:02.366Z,52.20
2018-10-17T13:11:35.033Z,50.39
2018-10-17T13:14:07.752Z,49.80
2018-10-17T13:16:41.082Z,51.48
2018-10-17T13:19:14.104Z,48.57
2018-10-17T13:21:47.718Z,46.11
2018-10-17T13:24:20.437Z,43.48
2018-10-17T13:26:53.003Z,42.37
2018-10-17T13:29:25.729Z,39.54
2018-10-17T13:31:58.531Z,38.53
2018-10-17T13:34:31.435Z,38.76
2018-10-17T13:37:06.260Z,38.88
2018-10-17T13:39:38.387Z,39.13
2018-10-17T13:42:10.933Z,37.29
2018-10-17T13:44:42.997Z,38.36
2018-10-17T13:47:15.615Z,40.89
2018-10-17T13:49:48.353Z,43.98
2018-10-17T13:52:20.526Z,44.07
2018-10-17T13:54:53.344Z,43.85
2018-10-17T13:57:26.430Z,45.82
2018-10-17T13:59:59.011Z,46.58
2018-10-17T14:02:31.461Z,47.77
2018-10-17T14:05:03.407Z,50.06
2018-10-17T14:07:36.141Z,51.15
2018-10-17T14:10:09.221Z,50.86
2018-10-17T14:12:40.703Z,51.42
2018-10-17T14:15:12.704Z,50.01
2018-10-17T14:17:43.733Z,49.01
2018-10-17T14:20:14.742Z,48.26
2018-10-17T14:22:45.990Z,48.41
2018-10-17T14:25:17.239Z,48.19
2018-10-17T14:27:47.946Z,49.48
2018-10-17T14:30:18.925Z,50.47
2018-10-17T14:32:49.754Z,50.26
2018-10-17T14:35:21.603Z,50.86
2018-10-17T14:37:52.735Z,50.60
2018-10-17T14:40:23.654Z,50.75
2018-10-17T14:42:54.643Z,51.71
2018-10-17T14:45:26.211Z,51.60
2018-10-17T14:47:57.445Z,51.76
2018-10-17T14:50:30.366Z,52.53
2018-10-17T14:53:01.818Z,52.45
2018-10-17T14:55:33.023Z,51.65
2018-10-17T14:58:04.373Z,52.14
2018-10-17T15:00:37.438Z,52.60
2018-10-17T15:03:10.676Z,52.94
2018-10-17T15:05:43.262Z,53.67
2018-10-17T15:08:16.773Z,54.46
2018-10-17T15:10:49.751Z,55.81
2018-10-17T15:13:22.205Z,57.18
2018-10-17T15:15:55.229Z,57.96
2018-10-17T15:18:27.676Z,58.98
2018-10-17T15:20:59.193Z,59.33
2018-10-17T15:23:30.225Z,59.80
2018-10-17T15:26:01.630Z,60.18
2018-10-17T15:28:32.873Z,61.25
2018-10-17T15:31:04.730Z,61.93
2018-10-17T15:33:35.720Z,61.87
2018-10-17T15:36:06.890Z,62.79
2018-10-17T15:38:38.112Z,63.45
2018-10-17T15:41:11.213Z,63.88
2018-10-17T15:43:43.703Z,64.12
2018-10-17T15:46:15.046Z,64.58
2018-10-17T15:48:49.478Z,64.92
2018-10-17T15:51:21.320Z,65.72
2018-10-17T15:53:54.770Z,66.01
2018-10-17T15:56:26.664Z,66.94
2018-10-17T16:02:40.019Z,68.96
2018-10-17T16:05:20.652Z,69.80
2018-10-17T16:07:57.009Z,70.00
2018-10-17T16:14:05.180Z,73.05
2018-10-17T16:16:40.989Z,74.42
2018-10-17T16:21:12.101Z,76.05
2018-10-17T16:23:42.969Z,77.42
2018-10-17T16:26:14.175Z,77.80
2018-10-17T16:28:45.118Z,77.10
2018-10-17T16:31:16.017Z,76.53
2018-10-17T16:33:47.241Z,76.02
2018-10-17T16:36:18.058Z,75.20
2018-10-17T16:38:49.613Z,75.43
2018-10-17T16:41:21.635Z,75.51
2018-10-17T16:43:52.734Z,75.87
2018-10-17T16:46:23.685Z,76.92
2018-10-17T16:48:54.697Z,77.57
2018-10-17T16:51:25.427Z,78.15
2018-10-17T16:53:56.440Z,79.42
2018-10-17T16:56:27.274Z,80.04
2018-10-17T16:58:58.283Z,81.32
2018-10-17T17:01:29.558Z,82.04
2018-10-17T17:04:01.624Z,82.01
2018-10-17T17:06:32.868Z,82.24
2018-10-17T17:09:04.293Z,82.39
2018-10-17T17:11:35.429Z,82.74
2018-10-17T17:14:07.238Z,83.91
2018-10-17T17:16:38.401Z,84.38
2018-10-17T17:19:09.368Z,84.86
2018-10-17T17:21:40.438Z,85.04
2018-10-17T17:24:12.120Z,85.17
2018-10-17T17:26:43.064Z,85.07
2018-10-17T17:29:13.837Z,85.49
2018-10-17T17:31:45.377Z,85.56
2018-10-17T17:34:16.443Z,85.45
2018-10-17T17:36:47.353Z,86.42
2018-10-17T17:39:18.440Z,85.91
2018-10-17T17:41:49.410Z,86.19
2018-10-17T17:44:20.376Z,85.73
2018-10-17T17:46:51.553Z,86.02
2018-10-17T17:49:22.519Z,86.13
2018-10-17T17:51:54.157Z,85.86
2018-10-17T17:54:26.660Z,86.13
2018-10-17T17:56:57.754Z,86.07
2018-10-17T17:59:29.175Z,86.40
2018-10-17T18:02:00.441Z,87.19
2018-10-17T18:04:31.412Z,87.49
2018-10-17T18:07:03.185Z,87.46
2018-10-17T18:09:34.525Z,87.62
2018-10-17T18:12:06.073Z,87.77
2018-10-17T18:14:38.218Z,88.10
2018-10-17T18:17:11.103Z,88.06
2018-10-17T18:19:42.870Z,88.70
2018-10-17T18:22:14.296Z,88.65
2018-10-17T18:24:45.865Z,88.79
2018-10-17T18:27:17.362Z,89.00
2018-10-17T18:29:49.853Z,88.84
2018-10-17T18:32:23.958Z,89.06
2018-10-17T18:34:56.000Z,88.95
2018-10-17T18:37:28.261Z,89.05
2018-10-17T18:40:01.374Z,89.22
2018-10-17T18:42:38.321Z,89.26
2018-10-17T18:45:10.436Z,89.87
2018-10-17T18:47:41.880Z,89.96
2018-10-17T18:50:17.425Z,90.26
2018-10-17T18:52:50.826Z,90.59
2018-10-17T18:55:28.423Z,91.34
2018-10-17T18:57:59.779Z,91.80
2018-10-17T19:00:31.168Z,91.88
2018-10-17T19:03:04.689Z,91.62
2018-10-17T19:05:36.222Z,91.80
2018-10-17T19:08:08.671Z,91.52
2018-10-17T19:10:39.751Z,91.27
2018-10-17T19:13:11.224Z,91.40
2018-10-17T19:15:42.560Z,91.89
2018-10-17T19:18:14.833Z,91.52
2018-10-17T19:20:46.372Z,91.88
2018-10-17T19:23:18.807Z,91.73
2018-10-17T19:25:50.244Z,91.72
2018-10-17T19:28:21.691Z,91.61
2018-10-17T19:30:57.813Z,92.16
2018-10-17T19:33:32.371Z,91.72
2018-10-17T19:36:05.165Z,91.92
2018-10-17T19:38:39.916Z,92.27
2018-10-17T19:41:14.047Z,91.96
2018-10-17T19:43:47.194Z,92.16
2018-10-17T19:46:20.623Z,91.93
2018-10-17T19:48:56.852Z,91.93
2018-10-17T19:51:28.554Z,91.92
2018-10-17T19:53:59.619Z,91.90
2018-10-17T19:56:30.862Z,91.57
2018-10-17T19:59:02.825Z,90.81
2018-10-17T20:01:35.178Z,88.98
2018-10-17T20:04:08.164Z,88.12
2018-10-17T20:06:39.824Z,87.68
2018-10-17T20:09:12.591Z,87.46
2018-10-17T20:11:45.785Z,86.82
2018-10-17T20:14:17.216Z,86.77
2018-10-17T20:16:49.500Z,86.72
2018-10-17T20:19:23.542Z,86.61
2018-10-17T20:21:54.780Z,86.80
2018-10-17T20:24:27.481Z,86.30
2018-10-17T20:26:59.076Z,86.39
2018-10-17T20:29:30.980Z,86.45
2018-10-17T20:32:02.729Z,87.57
2018-10-17T20:34:34.405Z,88.13
2018-10-17T20:37:06.635Z,89.23
2018-10-17T20:39:40.814Z,89.43
2018-10-17T20:42:15.384Z,90.33
2018-10-17T20:44:48.489Z,90.00
2018-10-17T20:47:19.749Z,90.31
2018-10-17T20:49:52.253Z,90.97
2018-10-17T20:52:24.048Z,91.32
2018-10-17T20:54:56.271Z,91.30
2018-10-17T20:57:27.256Z,91.56
2018-10-17T20:59:59.898Z,91.90
2018-10-17T21:02:31.982Z,92.58
2018-10-17T21:05:03.300Z,92.32
2018-10-17T21:07:34.195Z,93.05
2018-10-17T21:10:05.780Z,92.88
2018-10-17T21:12:37.084Z,93.30
2018-10-17T21:15:09.268Z,93.56
2018-10-17T21:17:42.247Z,93.58
2018-10-17T21:20:14.164Z,94.11
2018-10-17T21:22:45.873Z,94.02
2018-10-17T21:25:17.984Z,94.32
2018-10-17T21:27:49.804Z,95.08
2018-10-17T21:30:22.739Z,95.45
2018-10-17T21:32:53.652Z,95.96
2018-10-17T21:35:26.588Z,96.76
2018-10-17T21:37:57.558Z,97.67
2018-10-17T21:40:30.247Z,98.18
2018-10-17T21:43:01.324Z,98.73
2018-10-17T21:45:32.459Z,99.29
2018-10-17T21:48:03.598Z,99.88
2018-10-17T21:50:34.606Z,100.00
2018-10-17T21:53:05.704Z,100.00
2018-10-17T21:55:36.766Z,100.00
2018-10-17T21:58:08.861Z,100.00
2018-10-17T22:00:40.450Z,100.00
2018-10-17T22:03:11.368Z,100.00
2018-10-17T22:05:42.092Z,100.00
2018-10-17T22:08:12.927Z,100.00
2018-10-17T22:10:43.868Z,100.00
2018-10-17T22:13:14.970Z,100.00
2018-10-17T22:15:45.942Z,100.00
2018-10-17T22:18:16.653Z,100.00
2018-10-17T22:20:47.497Z,100.00
2018-10-17T22:23:18.465Z,100.00
2018-10-17T22:25:49.523Z,100.00
2018-10-17T22:28:20.532Z,100.00
2018-10-17T22:30:51.643Z,100.00
2018-10-17T22:33:22.879Z,100.00
2018-10-17T22:35:53.585Z,100.00
2018-10-17T22:38:24.294Z,100.00
2018-10-17T22:40:55.165Z,100.00
2018-10-17T22:43:26.049Z,100.00
2018-10-17T22:45:57.982Z,100.00
2018-10-17T22:48:28.765Z,100.00
2018-10-17T22:50:59.821Z,100.00
2018-10-17T22:53:31.023Z,100.00
2018-10-17T22:56:02.069Z,100.00
2018-10-17T22:58:33.443Z,100.00
2018-10-17T23:01:04.397Z,100.00
2018-10-17T23:03:35.852Z,100.00
2018-10-17T23:06:06.733Z,100.00
2018-10-17T23:08:37.752Z,100.00
2018-10-17T23:11:08.933Z,100.00
2018-10-17T23:13:39.889Z,100.00
2018-10-17T23:16:10.977Z,100.00
2018-10-17T23:18:43.966Z,100.00
2018-10-17T23:21:15.151Z,100.00
2018-10-17T23:23:52.780Z,100.00
2018-10-17T23:26:23.693Z,100.00
2018-10-17T23:28:55.021Z,100.00
2018-10-17T23:31:25.903Z,100.00
2018-10-17T23:33:56.506Z,100.00
2018-10-17T23:36:27.014Z,100.00
2018-10-17T23:38:57.720Z,100.00
2018-10-17T23:41:28.504Z,100.00
2018-10-17T23:43:59.445Z,100.00
2018-10-17T23:46:30.179Z,100.00
2018-10-17T23:49:01.109Z,100.00
2018-10-17T23:51:31.820Z,100.00
2018-10-17T23:54:02.811Z,100.00
2018-10-17T23:56:33.721Z,100.00
2018-10-17T23:59:05.080Z,100.00
